Wetterdaten: Woche 10.07.06 - 16.07.06 (KW28)
Datum Zeit Temperatur Luftfeuchte Luftdruck Niederschlag Wind Richtung Sonnenschein UV-Strahlung Solar Taupunkt Windchill Windben
10.07.2006 00:00 20.7 C 77 % 1021.8 hPa 0.0 l/m 3.1 km/h (1 Bft) O-SO 0.00 h 0.0 UV-I 0 W/m 16.6 C 20.7 C 4.3 km/h (1 Bft)
10.07.2006 01:00 20.0 C 81 % 1022.0 hPa 0.0 l/m 1.2 km/h (1 Bft) O-SO 0.00 h 0.0 UV-I 0 W/m 16.7 C 20.0 C 2.0 km/h (1 Bft)
10.07.2006 02:00 18.7 C 85 % 1022.3 hPa 0.0 l/m 1.2 km/h (1 Bft) O-SO 0.00 h 0.0 UV-I 0 W/m 16.1 C 18.7 C 2.3 km/h (1 Bft)
10.07.2006 03:00 18.0 C 88 % 1022.5 hPa 0.0 l/m 1.2 km/h (1 Bft) O-SO 0.00 h 0.0 UV-I 0 W/m 16.0 C 18.0 C 2.0 km/h (1 Bft)
10.07.2006 04:00 17.2 C 90 % 1022.6 hPa 0.0 l/m 1.7 km/h (1 Bft) O-SO 0.00 h 0.0 UV-I 0 W/m 15.6 C 17.2 C 2.4 km/h (1 Bft)
10.07.2006 05:00 16.6 C 92 % 1022.9 hPa 0.0 l/m 1.2 km/h (1 Bft) O-SO 0.00 h 0.0 UV-I 8 W/m 15.3 C 16.6 C 2.1 km/h (1 Bft)
10.07.2006 06:00 16.3 C 92 % 1023.5 hPa 0.0 l/m 1.7 km/h (1 Bft) O-SO 0.03 h 0.0 UV-I 29 W/m 15.1 C 16.3 C 2.7 km/h (1 Bft)
10.07.2006 07:00 17.9 C 88 % 1023.9 hPa 0.0 l/m 0.4 km/h (0 Bft) O 0.47 h 0.7 UV-I 136 W/m 15.9 C 17.9 C 1.0 km/h (0 Bft)
10.07.2006 08:00 20.6 C 80 % 1024.2 hPa 0.0 l/m 1.6 km/h (1 Bft) NW 0.93 h 1.6 UV-I 350 W/m 17.1 C 20.6 C 2.9 km/h (1 Bft)
10.07.2006 09:00 22.8 C 67 % 1024.2 hPa 0.0 l/m 2.2 km/h (1 Bft) W-NW 1.00 h 3.0 UV-I 481 W/m 16.4 C 22.8 C 4.2 km/h (1 Bft)
10.07.2006 10:00 24.6 C 56 % 1024.1 hPa 0.0 l/m 3.0 km/h (1 Bft) W 1.00 h 5.1 UV-I 648 W/m 15.3 C 24.6 C 4.9 km/h (1 Bft)
10.07.2006 11:00 25.9 C 51 % 1024.1 hPa 0.0 l/m 3.1 km/h (1 Bft) W 1.00 h 7.0 UV-I 777 W/m 14.9 C 25.9 C 5.4 km/h (1 Bft)
10.07.2006 12:00 27.1 C 48 % 1023.8 hPa 0.0 l/m 3.8 km/h (1 Bft) W-NW 1.00 h 8.5 UV-I 873 W/m 15.1 C 27.1 C 6.4 km/h (2 Bft)
10.07.2006 13:00 28.0 C 42 % 1023.5 hPa 0.0 l/m 6.0 km/h (2 Bft) W-NW 1.00 h 8.9 UV-I 874 W/m 13.9 C 28.0 C 9.5 km/h (2 Bft)
10.07.2006 14:00 28.8 C 40 % 1023.1 hPa 0.0 l/m 4.1 km/h (1 Bft) W 1.00 h 8.5 UV-I 849 W/m 13.9 C 28.8 C 6.7 km/h (2 Bft)
10.07.2006 15:00 29.5 C 37 % 1022.6 hPa 0.0 l/m 3.9 km/h (1 Bft) W 1.00 h 7.0 UV-I 774 W/m 13.4 C 29.5 C 6.2 km/h (2 Bft)
10.07.2006 16:00 30.5 C 32 % 1022.3 hPa 0.0 l/m 4.7 km/h (1 Bft) W-NW 1.00 h 5.2 UV-I 670 W/m 11.9 C 30.5 C 7.2 km/h (2 Bft)
10.07.2006 17:00 30.8 C 33 % 1021.9 hPa 0.0 l/m 5.1 km/h (1 Bft) W-NW 1.00 h 3.2 UV-I 528 W/m 12.5 C 30.8 C 7.9 km/h (2 Bft)
10.07.2006 18:00 30.4 C 34 % 1021.7 hPa 0.0 l/m 3.4 km/h (1 Bft) W-NW 1.00 h 1.6 UV-I 368 W/m 12.6 C 30.4 C 5.6 km/h (1 Bft)
10.07.2006 19:00 29.8 C 36 % 1021.4 hPa 0.0 l/m 5.0 km/h (1 Bft) W-NW 1.00 h 0.7 UV-I 205 W/m 13.0 C 29.8 C 7.1 km/h (2 Bft)
10.07.2006 20:00 28.0 C 43 % 1021.5 hPa 0.0 l/m 2.4 km/h (1 Bft) W-NW 0.63 h 0.0 UV-I 67 W/m 14.1 C 28.0 C 4.1 km/h (1 Bft)
10.07.2006 21:00 24.4 C 59 % 1021.9 hPa 0.0 l/m 4.2 km/h (1 Bft) O-SO 0.08 h 0.0 UV-I 12 W/m 15.9 C 24.4 C 5.3 km/h (1 Bft)
10.07.2006 22:00 21.6 C 72 % 1022.7 hPa 0.0 l/m 3.4 km/h (1 Bft) O-SO 0.00 h 0.0 UV-I 0 W/m 16.3 C 21.6 C 4.6 km/h (1 Bft)
10.07.2006 23:00 20.7 C 74 % 1023.0 hPa 0.0 l/m 2.3 km/h (1 Bft) O-SO 0.00 h 0.0 UV-I 0 W/m 16.0 C 20.7 C 3.5 km/h (1 Bft)
11.07.2006 00:00 19.9 C 78 % 1022.8 hPa 0.0 l/m 2.4 km/h (1 Bft) O-SO 0.00 h 0.0 UV-I 0 W/m 15.8 C 19.9 C 3.7 km/h (1 Bft)
11.07.2006 01:00 19.0 C 82 % 1022.4 hPa 0.0 l/m 1.5 km/h (1 Bft) O 0.00 h 0.0 UV-I 0 W/m 15.8 C 19.0 C 2.7 km/h (1 Bft)
11.07.2006 02:00 18.4 C 85 % 1021.8 hPa 0.0 l/m 0.0 km/h (0 Bft) N 0.00 h 0.0 UV-I 0 W/m 15.9 C 18.4 C 0.6 km/h (0 Bft)
11.07.2006 03:00 17.8 C 88 % 1021.4 hPa 0.0 l/m 1.1 km/h (1 Bft) O 0.00 h 0.0 UV-I 0 W/m 15.7 C 17.8 C 1.8 km/h (1 Bft)
11.07.2006 04:00 17.1 C 90 % 1021.3 hPa 0.0 l/m 0.8 km/h (0 Bft) O 0.00 h 0.0 UV-I 0 W/m 15.5 C 17.1 C 1.4 km/h (1 Bft)
11.07.2006 05:00 16.5 C 92 % 1021.6 hPa 0.0 l/m 1.9 km/h (1 Bft) O 0.03 h 0.0 UV-I 8 W/m 15.2 C 16.5 C 2.8 km/h (1 Bft)
11.07.2006 06:00 16.6 C 92 % 1021.8 hPa 0.0 l/m 0.5 km/h (0 Bft) O 0.00 h 0.0 UV-I 25 W/m 15.3 C 16.6 C 1.1 km/h (0 Bft)
11.07.2006 07:00 18.0 C 89 % 1021.9 hPa 0.0 l/m 1.4 km/h (1 Bft) O 0.78 h 0.8 UV-I 163 W/m 16.0 C 18.0 C 2.1 km/h (1 Bft)
11.07.2006 08:00 20.4 C 79 % 1022.0 hPa 0.0 l/m 0.6 km/h (0 Bft) O-SO 1.00 h 1.5 UV-I 331 W/m 16.6 C 20.4 C 1.8 km/h (1 Bft)
11.07.2006 09:00 22.6 C 73 % 1022.2 hPa 0.0 l/m 1.1 km/h (0 Bft) O 1.00 h 3.0 UV-I 491 W/m 17.4 C 22.6 C 2.7 km/h (1 Bft)
11.07.2006 10:00 24.9 C 64 % 1022.0 hPa 0.0 l/m 3.0 km/h (1 Bft) O-SO 1.00 h 5.0 UV-I 649 W/m 17.7 C 24.9 C 5.1 km/h (1 Bft)
11.07.2006 11:00 26.9 C 57 % 1021.9 hPa 0.0 l/m 3.0 km/h (1 Bft) O-SO 1.00 h 6.9 UV-I 752 W/m 17.5 C 26.9 C 5.6 km/h (1 Bft)
11.07.2006 12:00 29.0 C 50 % 1021.5 hPa 0.0 l/m 2.9 km/h (1 Bft) S-SW 1.00 h 8.2 UV-I 813 W/m 17.6 C 29.0 C 5.1 km/h (1 Bft)
11.07.2006 13:00 30.9 C 41 % 1020.9 hPa 0.0 l/m 7.5 km/h (2 Bft) W-NW 1.00 h 8.8 UV-I 865 W/m 16.2 C 30.9 C 11.9 km/h (2 Bft)
11.07.2006 14:00 31.6 C 35 % 1020.6 hPa 0.0 l/m 11.0 km/h (2 Bft) W-NW 1.00 h 8.4 UV-I 838 W/m 14.4 C 31.6 C 16.6 km/h (3 Bft)
11.07.2006 15:00 32.4 C 35 % 1020.4 hPa 0.0 l/m 10.6 km/h (2 Bft) W-NW 1.00 h 6.8 UV-I 766 W/m 15.1 C 32.4 C 16.9 km/h (3 Bft)
11.07.2006 16:00 32.7 C 35 % 1020.2 hPa 0.0 l/m 9.0 km/h (2 Bft) W-NW 1.00 h 4.9 UV-I 661 W/m 15.0 C 32.7 C 13.3 km/h (3 Bft)
11.07.2006 17:00 32.6 C 33 % 1019.9 hPa 0.0 l/m 8.1 km/h (2 Bft) W-NW 0.93 h 2.8 UV-I 460 W/m 14.1 C 32.6 C 12.0 km/h (2 Bft)
11.07.2006 18:00 31.8 C 38 % 1019.8 hPa 0.0 l/m 8.4 km/h (2 Bft) W-NW 0.85 h 1.4 UV-I 347 W/m 15.6 C 31.8 C 12.5 km/h (3 Bft)
11.07.2006 19:00 31.3 C 37 % 1019.7 hPa 0.0 l/m 7.4 km/h (2 Bft) W-NW 0.93 h 0.7 UV-I 193 W/m 14.8 C 31.3 C 10.8 km/h (2 Bft)
11.07.2006 20:00 29.8 C 38 % 1019.7 hPa 0.0 l/m 3.3 km/h (1 Bft) W-NW 1.00 h 0.0 UV-I 84 W/m 14.0 C 29.8 C 5.3 km/h (1 Bft)
11.07.2006 21:00 27.0 C 49 % 1020.2 hPa 0.0 l/m 1.1 km/h (0 Bft) NW 0.20 h 0.0 UV-I 15 W/m 15.1 C 27.0 C 2.1 km/h (1 Bft)
11.07.2006 22:00 23.9 C 66 % 1021.0 hPa 0.0 l/m 2.4 km/h (1 Bft) O 0.00 h 0.0 UV-I 0 W/m 17.0 C 23.9 C 3.6 km/h (1 Bft)
11.07.2006 23:00 22.5 C 70 % 1021.3 hPa 0.0 l/m 2.5 km/h (1 Bft) O-SO 0.00 h 0.0 UV-I 0 W/m 16.7 C 22.5 C 3.7 km/h (1 Bft)
12.07.2006 00:00 21.3 C 74 % 1021.0 hPa 0.0 l/m 3.0 km/h (1 Bft) O-SO 0.00 h 0.0 UV-I 0 W/m 16.4 C 21.3 C 4.4 km/h (1 Bft)
12.07.2006 01:00 20.5 C 78 % 1021.1 hPa 0.0 l/m 1.6 km/h (1 Bft) O 0.00 h 0.0 UV-I 0 W/m 16.5 C 20.5 C 2.7 km/h (1 Bft)
12.07.2006 02:00 19.9 C 81 % 1021.1 hPa 0.0 l/m 0.5 km/h (0 Bft) O 0.00 h 0.0 UV-I 0 W/m 16.5 C 19.9 C 1.3 km/h (1 Bft)
12.07.2006 03:00 19.2 C 84 % 1021.1 hPa 0.0 l/m 0.9 km/h (0 Bft) O 0.00 h 0.0 UV-I 0 W/m 16.4 C 19.2 C 1.9 km/h (1 Bft)
12.07.2006 04:00 18.5 C 87 % 1020.7 hPa 0.0 l/m 1.3 km/h (1 Bft) O 0.00 h 0.0 UV-I 0 W/m 16.3 C 18.5 C 2.5 km/h (1 Bft)
12.07.2006 05:00 18.3 C 88 % 1020.8 hPa 0.0 l/m 1.0 km/h (0 Bft) O 0.00 h 0.0 UV-I 6 W/m 16.3 C 18.3 C 2.2 km/h (1 Bft)
12.07.2006 06:00 18.0 C 89 % 1020.7 hPa 0.0 l/m 0.9 km/h (0 Bft) O 0.00 h 0.0 UV-I 25 W/m 16.3 C 18.0 C 1.4 km/h (1 Bft)
12.07.2006 07:00 19.5 C 86 % 1020.8 hPa 0.0 l/m 0.3 km/h (0 Bft) O 0.77 h 0.6 UV-I 153 W/m 17.1 C 19.5 C 1.0 km/h (0 Bft)
12.07.2006 08:00 21.7 C 77 % 1021.0 hPa 0.0 l/m 2.0 km/h (1 Bft) N-NW 0.92 h 1.3 UV-I 296 W/m 17.5 C 21.7 C 3.7 km/h (1 Bft)
12.07.2006 09:00 23.8 C 70 % 1021.2 hPa 0.0 l/m 1.9 km/h (1 Bft) NW 1.00 h 2.6 UV-I 466 W/m 18.0 C 23.8 C 3.6 km/h (1 Bft)
12.07.2006 10:00 25.8 C 64 % 1021.0 hPa 0.0 l/m 4.1 km/h (1 Bft) W-NW 1.00 h 4.2 UV-I 617 W/m 18.4 C 25.8 C 6.1 km/h (2 Bft)
12.07.2006 11:00 27.9 C 58 % 1020.6 hPa 0.0 l/m 3.9 km/h (1 Bft) W-NW 1.00 h 6.0 UV-I 777 W/m 18.8 C 27.9 C 6.2 km/h (2 Bft)
12.07.2006 12:00 29.5 C 52 % 1020.0 hPa 0.0 l/m 4.4 km/h (1 Bft) SO 0.80 h 6.5 UV-I 722 W/m 18.4 C 29.5 C 6.9 km/h (2 Bft)
12.07.2006 13:00 31.1 C 46 % 1019.6 hPa 0.0 l/m 5.6 km/h (1 Bft) N 1.00 h 7.8 UV-I 875 W/m 18.0 C 31.1 C 8.3 km/h (2 Bft)
12.07.2006 14:00 31.4 C 45 % 1019.1 hPa 0.0 l/m 6.5 km/h (2 Bft) W-NW 0.83 h 6.6 UV-I 804 W/m 18.0 C 31.4 C 10.5 km/h (2 Bft)
12.07.2006 15:00 30.4 C 47 % 1019.3 hPa 0.0 l/m 7.2 km/h (2 Bft) N 0.57 h 4.4 UV-I 526 W/m 17.9 C 30.4 C 13.4 km/h (3 Bft)
12.07.2006 16:00 30.4 C 46 % 1018.9 hPa 0.0 l/m 5.4 km/h (1 Bft) O 0.78 h 3.8 UV-I 546 W/m 17.3 C 30.4 C 10.2 km/h (2 Bft)
12.07.2006 17:00 30.9 C 45 % 1018.5 hPa 0.0 l/m 6.4 km/h (2 Bft) N-NO 1.00 h 2.7 UV-I 533 W/m 17.4 C 30.9 C 12.5 km/h (3 Bft)
12.07.2006 18:00 29.7 C 47 % 1018.6 hPa 0.0 l/m 6.3 km/h (2 Bft) NO 0.60 h 1.2 UV-I 266 W/m 17.1 C 29.7 C 12.3 km/h (3 Bft)
12.07.2006 19:00 27.7 C 54 % 1018.8 hPa 0.0 l/m 4.1 km/h (1 Bft) NO 0.00 h 0.5 UV-I 44 W/m 17.3 C 27.7 C 8.1 km/h (2 Bft)
12.07.2006 20:00 26.3 C 58 % 1019.0 hPa 0.0 l/m 1.0 km/h (0 Bft) N 0.00 h 0.0 UV-I 19 W/m 17.3 C 26.3 C 2.8 km/h (1 Bft)
12.07.2006 21:00 25.1 C 64 % 1019.1 hPa 0.0 l/m 1.6 km/h (1 Bft) O-SO 0.00 h 0.0 UV-I 7 W/m 17.9 C 25.1 C 3.0 km/h (1 Bft)
12.07.2006 22:00 23.7 C 73 % 1019.5 hPa 0.0 l/m 0.6 km/h (0 Bft) W-NW 0.00 h 0.0 UV-I 0 W/m 18.5 C 23.7 C 1.7 km/h (1 Bft)
12.07.2006 23:00 22.7 C 80 % 1019.7 hPa 0.0 l/m 1.0 km/h (0 Bft) N 0.00 h 0.0 UV-I 0 W/m 19.0 C 22.7 C 2.5 km/h (1 Bft)
13.07.2006 00:00 21.6 C 83 % 1019.4 hPa 0.0 l/m 1.3 km/h (1 Bft) O-SO 0.00 h 0.0 UV-I 0 W/m 18.5 C 21.6 C 2.6 km/h (1 Bft)
13.07.2006 01:00 20.6 C 86 % 1018.9 hPa 0.0 l/m 0.8 km/h (0 Bft) O-SO 0.00 h 0.0 UV-I 0 W/m 18.1 C 20.6 C 1.7 km/h (1 Bft)
13.07.2006 02:00 19.9 C 88 % 1018.9 hPa 0.0 l/m 2.1 km/h (1 Bft) O 0.00 h 0.0 UV-I 0 W/m 17.9 C 19.9 C 3.2 km/h (1 Bft)
13.07.2006 03:00 19.3 C 90 % 1019.0 hPa 0.0 l/m 0.6 km/h (0 Bft) O 0.00 h 0.0 UV-I 0 W/m 17.7 C 19.3 C 1.5 km/h (1 Bft)
13.07.2006 04:00 18.7 C 92 % 1018.9 hPa 0.0 l/m 1.3 km/h (1 Bft) O 0.00 h 0.0 UV-I 0 W/m 17.3 C 18.7 C 2.4 km/h (1 Bft)
13.07.2006 05:00 18.4 C 93 % 1018.9 hPa 0.0 l/m 2.9 km/h (1 Bft) O-SO 0.05 h 0.0 UV-I 8 W/m 17.2 C 18.4 C 4.3 km/h (1 Bft)
13.07.2006 06:00 18.5 C 93 % 1019.2 hPa 0.0 l/m 1.3 km/h (1 Bft) O-SO 0.00 h 0.0 UV-I 31 W/m 17.2 C 18.5 C 2.3 km/h (1 Bft)
13.07.2006 07:00 19.2 C 92 % 1019.4 hPa 0.0 l/m 0.7 km/h (0 Bft) O-SO 0.00 h 0.6 UV-I 93 W/m 17.8 C 19.2 C 1.5 km/h (1 Bft)
13.07.2006 08:00 20.3 C 90 % 1019.6 hPa 0.0 l/m 1.3 km/h (1 Bft) SO 0.53 h 1.2 UV-I 222 W/m 18.6 C 20.3 C 2.9 km/h (1 Bft)
13.07.2006 09:00 22.5 C 81 % 1019.8 hPa 0.0 l/m 1.2 km/h (1 Bft) S-SO 1.00 h 2.2 UV-I 394 W/m 19.1 C 22.5 C 2.8 km/h (1 Bft)
13.07.2006 10:00 24.7 C 73 % 1019.5 hPa 0.0 l/m 1.7 km/h (1 Bft) SO 1.00 h 3.9 UV-I 562 W/m 19.5 C 24.7 C 3.7 km/h (1 Bft)
13.07.2006 11:00 27.0 C 65 % 1019.3 hPa 0.0 l/m 3.2 km/h (1 Bft) S-SO 1.00 h 5.7 UV-I 723 W/m 20.0 C 27.0 C 5.6 km/h (1 Bft)
13.07.2006 12:00 28.5 C 55 % 1018.9 hPa 0.0 l/m 3.9 km/h (1 Bft) O-SO 1.00 h 7.1 UV-I 814 W/m 18.5 C 28.5 C 6.3 km/h (2 Bft)
13.07.2006 13:00 30.3 C 45 % 1018.6 hPa 0.0 l/m 3.9 km/h (1 Bft) N 1.00 h 7.8 UV-I 899 W/m 17.0 C 30.3 C 6.4 km/h (2 Bft)
13.07.2006 14:00 31.0 C 44 % 1018.0 hPa 0.0 l/m 9.1 km/h (2 Bft) N 0.98 h 6.3 UV-I 796 W/m 17.5 C 31.0 C 14.1 km/h (3 Bft)
13.07.2006 15:00 29.7 C 48 % 1017.7 hPa 0.0 l/m 7.3 km/h (2 Bft) N 1.00 h 4.3 UV-I 527 W/m 17.4 C 29.7 C 11.7 km/h (2 Bft)
13.07.2006 16:00 30.2 C 48 % 1017.3 hPa 0.0 l/m 7.8 km/h (2 Bft) N-NW 1.00 h 3.7 UV-I 524 W/m 17.9 C 30.2 C 12.1 km/h (2 Bft)
13.07.2006 17:00 30.4 C 46 % 1017.1 hPa 0.0 l/m 6.2 km/h (2 Bft) N-NW 1.00 h 2.3 UV-I 400 W/m 17.2 C 30.4 C 9.2 km/h (2 Bft)
13.07.2006 18:00 30.0 C 46 % 1017.4 hPa 0.0 l/m 4.7 km/h (1 Bft) N 1.00 h 1.2 UV-I 299 W/m 17.2 C 30.0 C 7.8 km/h (2 Bft)
13.07.2006 19:00 29.0 C 50 % 1017.5 hPa 0.0 l/m 3.4 km/h (1 Bft) N 1.00 h 0.6 UV-I 201 W/m 17.4 C 29.0 C 6.1 km/h (2 Bft)
13.07.2006 20:00 25.9 C 58 % 1018.3 hPa 0.0 l/m 3.8 km/h (1 Bft) S-SO 0.15 h 0.0 UV-I 94 W/m 16.9 C 25.9 C 6.8 km/h (2 Bft)
13.07.2006 21:00 23.7 C 66 % 1019.0 hPa 0.0 l/m 3.0 km/h (1 Bft) O-SO 0.00 h 0.0 UV-I 0 W/m 17.1 C 23.7 C 4.6 km/h (1 Bft)
13.07.2006 22:00 22.8 C 69 % 1019.6 hPa 0.0 l/m 3.8 km/h (1 Bft) S-SO 0.00 h 0.0 UV-I 0 W/m 16.9 C 22.8 C 6.7 km/h (2 Bft)
13.07.2006 23:00 21.7 C 72 % 1019.8 hPa 0.0 l/m 1.9 km/h (1 Bft) SO 0.00 h 0.0 UV-I 0 W/m 16.5 C 21.7 C 3.8 km/h (1 Bft)
14.07.2006 00:00 20.8 C 75 % 1019.9 hPa 0.0 l/m 2.4 km/h (1 Bft) O-SO 0.00 h 0.0 UV-I 0 W/m 16.2 C 20.8 C 4.2 km/h (1 Bft)
14.07.2006 01:00 20.2 C 79 % 1019.5 hPa 0.0 l/m 2.2 km/h (1 Bft) SO 0.00 h 0.0 UV-I 0 W/m 16.4 C 20.2 C 3.5 km/h (1 Bft)
14.07.2006 02:00 19.0 C 84 % 1019.6 hPa 0.0 l/m 3.4 km/h (1 Bft) O-SO 0.00 h 0.0 UV-I 0 W/m 16.1 C 19.0 C 4.5 km/h (1 Bft)
14.07.2006 03:00 18.6 C 86 % 1019.6 hPa 0.0 l/m 3.7 km/h (1 Bft) O-SO 0.00 h 0.0 UV-I 0 W/m 16.1 C 18.6 C 5.2 km/h (1 Bft)
14.07.2006 04:00 17.9 C 88 % 1019.7 hPa 0.0 l/m 2.3 km/h (1 Bft) O-SO 0.00 h 0.0 UV-I 0 W/m 15.8 C 17.9 C 3.5 km/h (1 Bft)
14.07.2006 05:00 17.4 C 89 % 1019.8 hPa 0.0 l/m 2.5 km/h (1 Bft) O 0.00 h 0.0 UV-I 7 W/m 15.5 C 17.4 C 3.8 km/h (1 Bft)
14.07.2006 06:00 17.2 C 90 % 1020.0 hPa 0.0 l/m 1.9 km/h (1 Bft) O-NO 0.00 h 0.0 UV-I 29 W/m 15.6 C 17.2 C 2.7 km/h (1 Bft)
14.07.2006 07:00 18.6 C 87 % 1020.0 hPa 0.0 l/m 1.1 km/h (0 Bft) O-NO 0.78 h 0.6 UV-I 142 W/m 16.4 C 18.6 C 2.1 km/h (1 Bft)
14.07.2006 08:00 20.5 C 82 % 1020.3 hPa 0.0 l/m 1.7 km/h (1 Bft) NW 1.00 h 1.3 UV-I 288 W/m 17.2 C 20.5 C 3.3 km/h (1 Bft)
14.07.2006 09:00 22.5 C 76 % 1020.3 hPa 0.0 l/m 2.4 km/h (1 Bft) W 1.00 h 2.5 UV-I 452 W/m 17.9 C 22.5 C 4.0 km/h (1 Bft)
14.07.2006 10:00 24.9 C 69 % 1020.3 hPa 0.0 l/m 3.2 km/h (1 Bft) W-NW 1.00 h 4.2 UV-I 597 W/m 18.8 C 24.9 C 5.2 km/h (1 Bft)
14.07.2006 11:00 27.1 C 60 % 1020.2 hPa 0.0 l/m 5.0 km/h (1 Bft) N 1.00 h 6.0 UV-I 714 W/m 18.7 C 27.1 C 9.0 km/h (2 Bft)
14.07.2006 12:00 28.8 C 53 % 1020.1 hPa 0.0 l/m 6.1 km/h (2 Bft) O-SO 1.00 h 7.3 UV-I 800 W/m 18.3 C 28.8 C 10.8 km/h (2 Bft)
14.07.2006 13:00 29.8 C 48 % 1019.8 hPa 0.0 l/m 8.6 km/h (2 Bft) O-SO 1.00 h 7.8 UV-I 835 W/m 17.4 C 29.8 C 14.2 km/h (3 Bft)
14.07.2006 14:00 29.0 C 49 % 1020.0 hPa 0.0 l/m 11.0 km/h (2 Bft) O-SO 0.50 h 4.3 UV-I 510 W/m 16.9 C 29.0 C 17.1 km/h (3 Bft)
14.07.2006 15:00 25.5 C 63 % 1020.6 hPa 0.0 l/m 4.7 km/h (1 Bft) N 0.00 h 1.4 UV-I 132 W/m 17.7 C 25.5 C 8.4 km/h (2 Bft)
14.07.2006 16:00 24.3 C 74 % 1020.8 hPa 0.0 l/m 4.0 km/h (1 Bft) N-NW 0.00 h 1.2 UV-I 131 W/m 19.4 C 24.3 C 6.8 km/h (2 Bft)
14.07.2006 17:00 25.1 C 63 % 1020.8 hPa 0.0 l/m 1.9 km/h (1 Bft) NW 0.00 h 1.1 UV-I 148 W/m 17.6 C 25.1 C 3.6 km/h (1 Bft)
14.07.2006 18:00 25.3 C 63 % 1020.7 hPa 0.0 l/m 0.8 km/h (0 Bft) N 0.00 h 0.7 UV-I 128 W/m 17.8 C 25.3 C 2.2 km/h (1 Bft)
14.07.2006 19:00 25.7 C 63 % 1020.9 hPa 0.0 l/m 2.6 km/h (1 Bft) N-NO 0.32 h 0.5 UV-I 124 W/m 18.2 C 25.7 C 5.6 km/h (1 Bft)
14.07.2006 20:00 25.6 C 61 % 1020.9 hPa 0.0 l/m 2.6 km/h (1 Bft) O-SO 0.63 h 0.0 UV-I 64 W/m 17.4 C 25.6 C 5.1 km/h (1 Bft)
14.07.2006 21:00 24.7 C 66 % 1021.5 hPa 0.0 l/m 0.5 km/h (0 Bft) O 0.05 h 0.0 UV-I 11 W/m 18.0 C 24.7 C 1.6 km/h (1 Bft)
14.07.2006 22:00 23.9 C 71 % 1021.7 hPa 0.0 l/m 2.1 km/h (1 Bft) N 0.00 h 0.0 UV-I 0 W/m 18.3 C 23.9 C 4.0 km/h (1 Bft)
14.07.2006 23:00 23.2 C 70 % 1022.0 hPa 0.0 l/m 2.0 km/h (1 Bft) O-NO 0.00 h 0.0 UV-I 0 W/m 17.4 C 23.2 C 4.4 km/h (1 Bft)
15.07.2006 00:00 22.4 C 71 % 1022.3 hPa 0.0 l/m 3.5 km/h (1 Bft) N-NO 0.00 h 0.0 UV-I 0 W/m 16.8 C 22.4 C 6.8 km/h (2 Bft)
15.07.2006 01:00 21.7 C 72 % 1022.3 hPa 0.0 l/m 3.0 km/h (1 Bft) NO 0.00 h 0.0 UV-I 0 W/m 16.4 C 21.7 C 5.7 km/h (1 Bft)
15.07.2006 02:00 21.0 C 73 % 1022.5 hPa 0.0 l/m 2.3 km/h (1 Bft) NO 0.00 h 0.0 UV-I 0 W/m 16.1 C 21.0 C 5.3 km/h (1 Bft)
15.07.2006 03:00 20.5 C 75 % 1022.5 hPa 0.0 l/m 2.2 km/h (1 Bft) N-NO 0.00 h 0.0 UV-I 0 W/m 15.9 C 20.5 C 4.7 km/h (1 Bft)
15.07.2006 04:00 20.1 C 76 % 1022.3 hPa 0.0 l/m 2.1 km/h (1 Bft) N 0.00 h 0.0 UV-I 0 W/m 15.7 C 20.1 C 4.3 km/h (1 Bft)
15.07.2006 05:00 19.8 C 76 % 1022.2 hPa 0.0 l/m 1.8 km/h (1 Bft) NW 0.00 h 0.0 UV-I 0 W/m 15.4 C 19.8 C 3.5 km/h (1 Bft)
15.07.2006 06:00 19.5 C 75 % 1022.6 hPa 0.0 l/m 2.2 km/h (1 Bft) N 0.00 h 0.0 UV-I 16 W/m 15.1 C 19.5 C 4.3 km/h (1 Bft)
15.07.2006 07:00 19.5 C 74 % 1022.8 hPa 0.0 l/m 3.0 km/h (1 Bft) N 0.28 h 0.7 UV-I 109 W/m 14.7 C 19.5 C 5.9 km/h (2 Bft)
15.07.2006 08:00 20.0 C 72 % 1023.2 hPa 0.0 l/m 2.2 km/h (1 Bft) N-NO 0.25 h 1.2 UV-I 191 W/m 14.9 C 20.0 C 5.0 km/h (1 Bft)
15.07.2006 09:00 21.0 C 68 % 1023.3 hPa 0.0 l/m 3.8 km/h (1 Bft) N 1.00 h 2.4 UV-I 342 W/m 15.0 C 21.0 C 7.4 km/h (2 Bft)
15.07.2006 10:00 22.4 C 65 % 1023.3 hPa 0.0 l/m 8.2 km/h (2 Bft) O-SO 0.95 h 4.5 UV-I 594 W/m 15.5 C 22.4 C 12.7 km/h (3 Bft)
15.07.2006 11:00 24.0 C 61 % 1023.2 hPa 0.0 l/m 8.1 km/h (2 Bft) O-SO 1.00 h 6.3 UV-I 731 W/m 15.9 C 24.0 C 12.6 km/h (3 Bft)
15.07.2006 12:00 25.7 C 56 % 1023.0 hPa 0.0 l/m 6.3 km/h (2 Bft) O-SO 1.00 h 7.4 UV-I 806 W/m 16.2 C 25.7 C 11.3 km/h (2 Bft)
15.07.2006 13:00 26.5 C 54 % 1022.9 hPa 0.0 l/m 12.5 km/h (3 Bft) O-SO 1.00 h 8.0 UV-I 846 W/m 16.4 C 26.5 C 18.5 km/h (3 Bft)
15.07.2006 14:00 27.5 C 51 % 1022.6 hPa 0.0 l/m 9.0 km/h (2 Bft) O-SO 0.90 h 7.3 UV-I 761 W/m 16.5 C 27.5 C 13.7 km/h (3 Bft)
15.07.2006 15:00 28.1 C 48 % 1022.3 hPa 0.0 l/m 7.9 km/h (2 Bft) O-SO 0.77 h 5.8 UV-I 639 W/m 16.2 C 28.1 C 13.1 km/h (3 Bft)
15.07.2006 16:00 28.2 C 47 % 1022.0 hPa 0.0 l/m 5.5 km/h (1 Bft) O-SO 0.80 h 4.0 UV-I 566 W/m 15.8 C 28.2 C 9.8 km/h (2 Bft)
15.07.2006 17:00 28.6 C 44 % 1021.9 hPa 0.0 l/m 5.7 km/h (1 Bft) N 0.82 h 2.6 UV-I 439 W/m 15.0 C 28.6 C 10.4 km/h (2 Bft)
15.07.2006 18:00 28.2 C 41 % 1021.9 hPa 0.0 l/m 6.7 km/h (2 Bft) O 1.00 h 1.4 UV-I 351 W/m 13.6 C 28.2 C 12.2 km/h (2 Bft)
15.07.2006 19:00 27.6 C 40 % 1021.9 hPa 0.0 l/m 4.3 km/h (1 Bft) O-NO 1.00 h 0.7 UV-I 196 W/m 12.9 C 27.6 C 8.1 km/h (2 Bft)
15.07.2006 20:00 26.2 C 43 % 1022.2 hPa 0.0 l/m 2.1 km/h (1 Bft) N-NO 0.77 h 0.0 UV-I 65 W/m 12.6 C 26.2 C 5.0 km/h (1 Bft)
15.07.2006 21:00 24.5 C 49 % 1022.7 hPa 0.0 l/m 2.0 km/h (1 Bft) O 0.07 h 0.0 UV-I 11 W/m 12.9 C 24.5 C 4.4 km/h (1 Bft)
15.07.2006 22:00 23.0 C 53 % 1023.1 hPa 0.0 l/m 3.8 km/h (1 Bft) N-NO 0.00 h 0.0 UV-I 0 W/m 12.9 C 23.0 C 7.1 km/h (2 Bft)
15.07.2006 23:00 21.8 C 55 % 1023.1 hPa 0.0 l/m 3.9 km/h (1 Bft) N-NO 0.00 h 0.0 UV-I 0 W/m 12.4 C 21.8 C 7.1 km/h (2 Bft)
16.07.2006 00:00 20.6 C 58 % 1023.0 hPa 0.0 l/m 2.9 km/h (1 Bft) N 0.00 h 0.0 UV-I 0 W/m 12.1 C 20.6 C 5.4 km/h (1 Bft)
16.07.2006 01:00 18.6 C 67 % 1023.0 hPa 0.0 l/m 0.6 km/h (0 Bft) O-SO 0.00 h 0.0 UV-I 0 W/m 12.3 C 18.6 C 2.0 km/h (1 Bft)
16.07.2006 02:00 18.0 C 68 % 1022.9 hPa 0.0 l/m 0.8 km/h (0 Bft) N-NO 0.00 h 0.0 UV-I 0 W/m 12.0 C 18.0 C 2.3 km/h (1 Bft)
16.07.2006 03:00 17.6 C 67 % 1022.7 hPa 0.0 l/m 1.6 km/h (1 Bft) N 0.00 h 0.0 UV-I 0 W/m 11.3 C 17.6 C 3.8 km/h (1 Bft)
16.07.2006 04:00 16.6 C 68 % 1022.7 hPa 0.0 l/m 1.1 km/h (1 Bft) O-SO 0.00 h 0.0 UV-I 0 W/m 10.7 C 16.6 C 2.5 km/h (1 Bft)
16.07.2006 05:00 15.2 C 75 % 1022.8 hPa 0.0 l/m 2.3 km/h (1 Bft) O 0.02 h 0.0 UV-I 8 W/m 10.7 C 15.2 C 3.7 km/h (1 Bft)
16.07.2006 06:00 14.8 C 77 % 1022.9 hPa 0.0 l/m 0.6 km/h (0 Bft) O 0.02 h 0.0 UV-I 21 W/m 10.9 C 14.8 C 1.6 km/h (1 Bft)
16.07.2006 07:00 17.0 C 69 % 1023.0 hPa 0.0 l/m 1.5 km/h (1 Bft) SO 0.78 h 0.7 UV-I 158 W/m 11.2 C 17.0 C 3.2 km/h (1 Bft)
16.07.2006 08:00 19.6 C 58 % 1023.2 hPa 0.0 l/m 2.6 km/h (1 Bft) O-SO 1.00 h 1.4 UV-I 334 W/m 11.2 C 19.6 C 5.5 km/h (1 Bft)
16.07.2006 09:00 21.3 C 53 % 1023.0 hPa 0.0 l/m 4.9 km/h (1 Bft) O-SO 1.00 h 2.9 UV-I 496 W/m 11.4 C 21.3 C 8.6 km/h (2 Bft)
16.07.2006 10:00 23.0 C 50 % 1022.8 hPa 0.0 l/m 7.3 km/h (2 Bft) O-SO 1.00 h 4.6 UV-I 640 W/m 11.9 C 23.0 C 11.9 km/h (2 Bft)
16.07.2006 11:00 24.7 C 45 % 1022.7 hPa 0.0 l/m 7.1 km/h (2 Bft) O-SO 1.00 h 6.4 UV-I 757 W/m 12.0 C 24.7 C 13.1 km/h (3 Bft)
16.07.2006 12:00 26.3 C 41 % 1022.7 hPa 0.0 l/m 6.7 km/h (2 Bft) O 1.00 h 7.6 UV-I 832 W/m 11.8 C 26.3 C 12.4 km/h (3 Bft)
16.07.2006 13:00 27.3 C 38 % 1022.6 hPa 0.0 l/m 6.5 km/h (2 Bft) O-SO 1.00 h 8.1 UV-I 860 W/m 11.6 C 27.3 C 12.1 km/h (2 Bft)
16.07.2006 14:00 28.5 C 31 % 1022.3 hPa 0.0 l/m 6.4 km/h (2 Bft) N 1.00 h 7.8 UV-I 851 W/m 9.6 C 28.5 C 12.1 km/h (2 Bft)
16.07.2006 15:00 28.9 C 29 % 1022.2 hPa 0.0 l/m 8.0 km/h (2 Bft) O-SO 1.00 h 6.5 UV-I 784 W/m 8.9 C 28.9 C 14.2 km/h (3 Bft)
16.07.2006 16:00 28.7 C 30 % 1022.2 hPa 0.0 l/m 11.1 km/h (2 Bft) O-SO 1.00 h 4.7 UV-I 673 W/m 9.2 C 28.7 C 17.2 km/h (3 Bft)
16.07.2006 17:00 28.7 C 29 % 1022.1 hPa 0.0 l/m 7.0 km/h (2 Bft) O-SO 1.00 h 2.9 UV-I 532 W/m 9.1 C 28.7 C 12.3 km/h (3 Bft)
16.07.2006 18:00 28.3 C 30 % 1021.9 hPa 0.0 l/m 6.4 km/h (2 Bft) O-SO 1.00 h 1.5 UV-I 372 W/m 9.0 C 28.3 C 11.3 km/h (2 Bft)
16.07.2006 19:00 27.3 C 31 % 1021.7 hPa 0.0 l/m 6.2 km/h (2 Bft) O-SO 1.00 h 0.7 UV-I 209 W/m 8.9 C 27.3 C 10.4 km/h (2 Bft)
16.07.2006 20:00 26.1 C 37 % 1021.6 hPa 0.0 l/m 2.5 km/h (1 Bft) NO 0.72 h 0.0 UV-I 67 W/m 10.3 C 26.1 C 5.3 km/h (1 Bft)
16.07.2006 21:00 24.1 C 42 % 1021.9 hPa 0.0 l/m 2.6 km/h (1 Bft) N-NO 0.05 h 0.0 UV-I 10 W/m 10.2 C 24.1 C 5.5 km/h (1 Bft)
16.07.2006 22:00 22.4 C 46 % 1022.2 hPa 0.0 l/m 3.7 km/h (1 Bft) N-NO 0.00 h 0.0 UV-I 0 W/m 10.1 C 22.4 C 6.9 km/h (2 Bft)
16.07.2006 23:00 20.5 C 53 % 1022.7 hPa 0.0 l/m 1.1 km/h (1 Bft) N-NO 0.00 h 0.0 UV-I 0 W/m 10.6 C 20.5 C 2.9 km/h (1 Bft)
Min-Datum _ 16.07.06 10.07.06 13.07.06 - 10.07.06 - - - - 16.07.06 16.07.06 10.07.06
_ Min-Zeit 06:05 16:23 17:00 - 00:20 - - - - 15:52 06:05 00:20
Minimum _ 14.5 C 27 % 1016.9 hPa - 0.0 km/h (0 Bft) - - - - 7.5 C 14.5 C 0.0 km/h (0 Bft)
Max-Datum _ 11.07.06 10.07.06 10.07.06 10.07.06 14.07.06 - 10.07.06 10.07.06 12.07.06 13.07.06 11.07.06 16.07.06
_ Max-Zeit 16:41 06:06 08:30 00:00 14:18 - 06:58 13:25 15:01 11:47 16:41 15:35
Maximum _ 33.1 C 94 % 1024.3 hPa 0.0 l/m 25.9 km/h
O-SO (4 Bft)
- 0.02 h 9.2 UV-I 1042 W/m 21.2 C 33.1 C 32.4 km/h
N (5 Bft)
Durchschnitt _ 23.9 C 63 % 1021.2 hPa #0.0 l/m 3.6 km/h (1 Bft) O-SO #82:20 h 4.0 UV-I 408 W/m 15.6 C 23.9 C 6.2 km/h (2 Bft)
© Kaiko 2006